sensor_id;sensor_type;location;lat;lon;timestamp;pressure;altitude;pressure_sealevel;temperature;humidity
70198;BME280;57582;-34.876;138.628;2022-09-09T00:04:45;100426;;;14.56;82.71
70198;BME280;57582;-34.876;138.628;2022-09-09T00:07:47;100429;;;14.48;82.90
70198;BME280;57582;-34.876;138.628;2022-09-09T00:10:45;100433;;;14.49;83.43
70198;BME280;57582;-34.876;138.628;2022-09-09T00:13:46;100434;;;14.48;82.42
70198;BME280;57582;-34.876;138.628;2022-09-09T00:16:46;100437;;;14.43;81.74
70198;BME280;57582;-34.876;138.628;2022-09-09T00:19:48;100443;;;14.44;81.10
70198;BME280;57582;-34.876;138.628;2022-09-09T00:22:48;100470;;;14.24;80.98
70198;BME280;57582;-34.876;138.628;2022-09-09T00:25:47;100472;;;14.19;79.83
70198;BME280;57582;-34.876;138.628;2022-09-09T00:31:44;100489;;;13.96;79.55
70198;BME280;57582;-34.876;138.628;2022-09-09T00:34:48;100492;;;13.92;80.40
70198;BME280;57582;-34.876;138.628;2022-09-09T00:37:44;100495;;;14.03;80.53
70198;BME280;57582;-34.876;138.628;2022-09-09T00:40:52;100501;;;14.02;80.05
70198;BME280;57582;-34.876;138.628;2022-09-09T00:43:45;100505;;;14.06;80.33
70198;BME280;57582;-34.876;138.628;2022-09-09T00:58:48;100517;;;14.25;80.93
70198;BME280;57582;-34.876;138.628;2022-09-09T01:01:44;100521;;;14.18;81.25
70198;BME280;57582;-34.876;138.628;2022-09-09T01:04:44;100506;;;14.16;81.41
70198;BME280;57582;-34.876;138.628;2022-09-09T01:07:44;100513;;;14.21;81.33
70198;BME280;57582;-34.876;138.628;2022-09-09T01:10:52;100523;;;14.20;81.26
70198;BME280;57582;-34.876;138.628;2022-09-09T01:13:44;100521;;;14.08;81.56
70198;BME280;57582;-34.876;138.628;2022-09-09T01:16:44;100521;;;14.06;81.25
70198;BME280;57582;-34.876;138.628;2022-09-09T01:28:45;100529;;;14.19;79.69
70198;BME280;57582;-34.876;138.628;2022-09-09T01:31:52;100525;;;14.28;79.24
70198;BME280;57582;-34.876;138.628;2022-09-09T01:34:45;100531;;;14.32;79.06
70198;BME280;57582;-34.876;138.628;2022-09-09T01:37:44;100531;;;14.27;77.68
70198;BME280;57582;-34.876;138.628;2022-09-09T01:40:44;100536;;;14.38;77.96
70198;BME280;57582;-34.876;138.628;2022-09-09T01:43:44;100532;;;14.39;77.29
70198;BME280;57582;-34.876;138.628;2022-09-09T01:46:45;100537;;;14.58;77.88
70198;BME280;57582;-34.876;138.628;2022-09-09T01:49:44;100531;;;14.77;77.11
70198;BME280;57582;-34.876;138.628;2022-09-09T01:52:45;100547;;;14.92;76.96
70198;BME280;57582;-34.876;138.628;2022-09-09T01:55:53;100548;;;14.87;76.63
70198;BME280;57582;-34.876;138.628;2022-09-09T01:58:57;100550;;;14.72;76.71
70198;BME280;57582;-34.876;138.628;2022-09-09T02:01:48;100555;;;14.59;77.47
70198;BME280;57582;-34.876;138.628;2022-09-09T02:04:45;100556;;;14.53;78.03
70198;BME280;57582;-34.876;138.628;2022-09-09T02:07:48;100561;;;14.43;78.44
70198;BME280;57582;-34.876;138.628;2022-09-09T02:13:45;100566;;;14.27;77.60
70198;BME280;57582;-34.876;138.628;2022-09-09T02:16:47;100569;;;14.17;78.02
70198;BME280;57582;-34.876;138.628;2022-09-09T02:19:46;100585;;;13.99;79.23
70198;BME280;57582;-34.876;138.628;2022-09-09T02:22:45;100585;;;13.91;80.26
70198;BME280;57582;-34.876;138.628;2022-09-09T02:25:44;100590;;;13.89;80.13
70198;BME280;57582;-34.876;138.628;2022-09-09T02:28:44;100592;;;13.93;80.10
70198;BME280;57582;-34.876;138.628;2022-09-09T02:31:44;100588;;;14.05;80.07
70198;BME280;57582;-34.876;138.628;2022-09-09T02:34:47;100593;;;14.17;79.56
70198;BME280;57582;-34.876;138.628;2022-09-09T02:37:44;100594;;;14.26;79.10
70198;BME280;57582;-34.876;138.628;2022-09-09T02:40:44;100583;;;14.22;79.01
70198;BME280;57582;-34.876;138.628;2022-09-09T02:43:44;100574;;;14.19;78.80
70198;BME280;57582;-34.876;138.628;2022-09-09T02:55:46;100569;;;14.33;77.94
70198;BME280;57582;-34.876;138.628;2022-09-09T02:58:45;100568;;;14.41;77.29
70198;BME280;57582;-34.876;138.628;2022-09-09T03:01:44;100568;;;14.48;76.51
70198;BME280;57582;-34.876;138.628;2022-09-09T03:04:44;100573;;;14.47;75.24
70198;BME280;57582;-34.876;138.628;2022-09-09T03:07:44;100576;;;14.68;76.03
70198;BME280;57582;-34.876;138.628;2022-09-09T03:10:45;100579;;;14.87;75.41
70198;BME280;57582;-34.876;138.628;2022-09-09T03:13:44;100570;;;15.04;74.18
70198;BME280;57582;-34.876;138.628;2022-09-09T03:16:44;100573;;;15.07;71.58
70198;BME280;57582;-34.876;138.628;2022-09-09T03:19:44;100583;;;15.12;71.97
70198;BME280;57582;-34.876;138.628;2022-09-09T03:22:45;100560;;;14.98;71.17
70198;BME280;57582;-34.876;138.628;2022-09-09T03:25:48;100580;;;15.06;71.28
70198;BME280;57582;-34.876;138.628;2022-09-09T03:28:44;100584;;;15.14;71.89
70198;BME280;57582;-34.876;138.628;2022-09-09T03:31:44;100583;;;15.15;71.59
70198;BME280;57582;-34.876;138.628;2022-09-09T03:34:45;100575;;;15.15;71.54
70198;BME280;57582;-34.876;138.628;2022-09-09T03:37:44;100586;;;15.20;72.20
70198;BME280;57582;-34.876;138.628;2022-09-09T03:40:52;100577;;;15.24;71.80
70198;BME280;57582;-34.876;138.628;2022-09-09T03:43:44;100564;;;15.39;72.03
70198;BME280;57582;-34.876;138.628;2022-09-09T03:46:45;100569;;;15.62;70.98
70198;BME280;57582;-34.876;138.628;2022-09-09T03:49:45;100578;;;15.77;70.42
70198;BME280;57582;-34.876;138.628;2022-09-09T03:52:44;100569;;;15.80;69.38
70198;BME280;57582;-34.876;138.628;2022-09-09T03:55:45;100567;;;15.69;68.99
70198;BME280;57582;-34.876;138.628;2022-09-09T03:58:45;100571;;;15.54;69.64
70198;BME280;57582;-34.876;138.628;2022-09-09T04:01:44;100571;;;15.57;68.55
70198;BME280;57582;-34.876;138.628;2022-09-09T04:04:44;100595;;;15.65;68.86
70198;BME280;57582;-34.876;138.628;2022-09-09T04:07:44;100588;;;15.51;68.94
70198;BME280;57582;-34.876;138.628;2022-09-09T04:10:45;100589;;;15.61;69.48
70198;BME280;57582;-34.876;138.628;2022-09-09T04:13:44;100585;;;15.68;68.93
70198;BME280;57582;-34.876;138.628;2022-09-09T04:16:44;100584;;;15.63;68.41
70198;BME280;57582;-34.876;138.628;2022-09-09T04:19:44;100600;;;15.52;68.55
70198;BME280;57582;-34.876;138.628;2022-09-09T04:22:46;100589;;;15.40;68.77
70198;BME280;57582;-34.876;138.628;2022-09-09T04:25:46;100589;;;15.27;69.10
70198;BME280;57582;-34.876;138.628;2022-09-09T04:28:44;100598;;;15.27;68.94
70198;BME280;57582;-34.876;138.628;2022-09-09T04:31:44;100594;;;15.08;68.98
70198;BME280;57582;-34.876;138.628;2022-09-09T04:34:45;100601;;;15.03;69.72
70198;BME280;57582;-34.876;138.628;2022-09-09T04:37:44;100609;;;15.03;70.15
70198;BME280;57582;-34.876;138.628;2022-09-09T04:40:48;100599;;;15.05;70.56
70198;BME280;57582;-34.876;138.628;2022-09-09T04:43:44;100580;;;14.91;71.42
70198;BME280;57582;-34.876;138.628;2022-09-09T04:46:45;100605;;;15.07;71.99
70198;BME280;57582;-34.876;138.628;2022-09-09T04:49:44;100611;;;15.09;72.17
70198;BME280;57582;-34.876;138.628;2022-09-09T04:52:45;100622;;;15.13;72.21
70198;BME280;57582;-34.876;138.628;2022-09-09T04:55:44;100619;;;14.98;72.50
70198;BME280;57582;-34.876;138.628;2022-09-09T04:58:45;100625;;;14.95;74.32
70198;BME280;57582;-34.876;138.628;2022-09-09T05:01:44;100633;;;14.90;74.78
70198;BME280;57582;-34.876;138.628;2022-09-09T05:04:44;100632;;;14.78;75.19
70198;BME280;57582;-34.876;138.628;2022-09-09T05:07:44;100635;;;14.91;75.05
70198;BME280;57582;-34.876;138.628;2022-09-09T05:10:47;100632;;;14.86;74.10
70198;BME280;57582;-34.876;138.628;2022-09-09T05:13:44;100635;;;14.81;74.49
70198;BME280;57582;-34.876;138.628;2022-09-09T05:16:44;100640;;;14.84;74.39
70198;BME280;57582;-34.876;138.628;2022-09-09T05:19:44;100631;;;14.87;74.29
70198;BME280;57582;-34.876;138.628;2022-09-09T05:22:45;100635;;;14.74;74.08
70198;BME280;57582;-34.876;138.628;2022-09-09T05:25:53;100626;;;14.76;74.20
70198;BME280;57582;-34.876;138.628;2022-09-09T05:28:44;100643;;;14.78;74.34
70198;BME280;57582;-34.876;138.628;2022-09-09T05:31:45;100633;;;14.75;74.46
70198;BME280;57582;-34.876;138.628;2022-09-09T05:34:45;100640;;;14.77;74.21
70198;BME280;57582;-34.876;138.628;2022-09-09T05:37:44;100643;;;14.76;73.80
70198;BME280;57582;-34.876;138.628;2022-09-09T05:40:48;100648;;;14.96;73.73
70198;BME280;57582;-34.876;138.628;2022-09-09T05:43:44;100652;;;15.08;73.39
70198;BME280;57582;-34.876;138.628;2022-09-09T05:46:45;100652;;;15.01;71.56
70198;BME280;57582;-34.876;138.628;2022-09-09T05:49:44;100657;;;14.99;71.25
70198;BME280;57582;-34.876;138.628;2022-09-09T05:52:44;100663;;;14.98;71.05
70198;BME280;57582;-34.876;138.628;2022-09-09T05:55:44;100659;;;14.99;71.23
70198;BME280;57582;-34.876;138.628;2022-09-09T05:58:46;100669;;;14.98;71.36
70198;BME280;57582;-34.876;138.628;2022-09-09T06:01:44;100677;;;15.03;71.48
70198;BME280;57582;-34.876;138.628;2022-09-09T06:04:44;100675;;;15.07;71.48
70198;BME280;57582;-34.876;138.628;2022-09-09T06:07:44;100676;;;15.11;71.13
70198;BME280;57582;-34.876;138.628;2022-09-09T06:10:45;100681;;;15.12;70.68
70198;BME280;57582;-34.876;138.628;2022-09-09T06:13:45;100688;;;15.24;71.26
70198;BME280;57582;-34.876;138.628;2022-09-09T06:16:44;100690;;;15.41;71.00
70198;BME280;57582;-34.876;138.628;2022-09-09T06:19:44;100685;;;15.57;69.92
70198;BME280;57582;-34.876;138.628;2022-09-09T06:22:45;100686;;;15.65;69.07
70198;BME280;57582;-34.876;138.628;2022-09-09T06:25:44;100687;;;15.64;68.87
70198;BME280;57582;-34.876;138.628;2022-09-09T06:28:45;100701;;;15.52;68.46
70198;BME280;57582;-34.876;138.628;2022-09-09T06:31:44;100703;;;15.40;69.52
70198;BME280;57582;-34.876;138.628;2022-09-09T06:34:45;100700;;;15.46;70.05
70198;BME280;57582;-34.876;138.628;2022-09-09T06:37:45;100695;;;15.44;69.68
70198;BME280;57582;-34.876;138.628;2022-09-09T06:40:52;100701;;;15.41;69.83
70198;BME280;57582;-34.876;138.628;2022-09-09T06:43:45;100708;;;15.36;70.10
70198;BME280;57582;-34.876;138.628;2022-09-09T06:46:45;100709;;;15.29;70.37
70198;BME280;57582;-34.876;138.628;2022-09-09T06:49:44;100713;;;15.36;71.58
70198;BME280;57582;-34.876;138.628;2022-09-09T06:52:46;100725;;;15.47;69.87
70198;BME280;57582;-34.876;138.628;2022-09-09T06:55:45;100731;;;15.67;67.04
70198;BME280;57582;-34.876;138.628;2022-09-09T06:58:46;100739;;;15.54;65.59
70198;BME280;57582;-34.876;138.628;2022-09-09T07:01:44;100732;;;15.43;66.32
70198;BME280;57582;-34.876;138.628;2022-09-09T07:04:44;100740;;;15.45;66.26
70198;BME280;57582;-34.876;138.628;2022-09-09T07:07:44;100745;;;15.37;66.31
70198;BME280;57582;-34.876;138.628;2022-09-09T07:10:45;100757;;;15.28;66.62
70198;BME280;57582;-34.876;138.628;2022-09-09T07:13:44;100749;;;15.30;66.99
70198;BME280;57582;-34.876;138.628;2022-09-09T07:16:45;100756;;;15.23;67.06
70198;BME280;57582;-34.876;138.628;2022-09-09T07:19:44;100767;;;15.07;65.86
70198;BME280;57582;-34.876;138.628;2022-09-09T07:22:45;100790;;;14.98;66.38
70198;BME280;57582;-34.876;138.628;2022-09-09T07:25:45;100792;;;14.65;67.43
70198;BME280;57582;-34.876;138.628;2022-09-09T07:28:45;100798;;;14.59;69.65
70198;BME280;57582;-34.876;138.628;2022-09-09T07:31:44;100796;;;14.54;70.97
70198;BME280;57582;-34.876;138.628;2022-09-09T07:34:45;100803;;;14.36;71.26
70198;BME280;57582;-34.876;138.628;2022-09-09T07:37:44;100798;;;14.36;72.07
70198;BME280;57582;-34.876;138.628;2022-09-09T07:40:45;100811;;;14.24;72.45
70198;BME280;57582;-34.876;138.628;2022-09-09T07:43:45;100810;;;14.32;72.84
70198;BME280;57582;-34.876;138.628;2022-09-09T07:46:45;100796;;;14.13;73.06
70198;BME280;57582;-34.876;138.628;2022-09-09T07:49:44;100822;;;14.31;73.01
70198;BME280;57582;-34.876;138.628;2022-09-09T07:52:45;100835;;;14.37;73.03
70198;BME280;57582;-34.876;138.628;2022-09-09T07:55:45;100833;;;14.49;72.86
70198;BME280;57582;-34.876;138.628;2022-09-09T07:58:45;100833;;;14.55;72.88
70198;BME280;57582;-34.876;138.628;2022-09-09T08:01:45;100834;;;14.70;72.35
70198;BME280;57582;-34.876;138.628;2022-09-09T08:04:45;100831;;;14.82;71.75
70198;BME280;57582;-34.876;138.628;2022-09-09T08:07:45;100843;;;14.76;71.70
70198;BME280;57582;-34.876;138.628;2022-09-09T08:10:45;100837;;;14.77;71.60
70198;BME280;57582;-34.876;138.628;2022-09-09T08:13:45;100838;;;14.73;71.49
70198;BME280;57582;-34.876;138.628;2022-09-09T08:16:45;100851;;;14.68;71.84
70198;BME280;57582;-34.876;138.628;2022-09-09T08:19:45;100856;;;14.64;71.80
70198;BME280;57582;-34.876;138.628;2022-09-09T08:22:45;100848;;;14.55;72.07
70198;BME280;57582;-34.876;138.628;2022-09-09T08:25:45;100861;;;14.54;71.88
70198;BME280;57582;-34.876;138.628;2022-09-09T08:28:45;100858;;;14.41;72.30
70198;BME280;57582;-34.876;138.628;2022-09-09T08:31:46;100857;;;14.42;72.60
70198;BME280;57582;-34.876;138.628;2022-09-09T08:34:45;100868;;;14.54;72.59
70198;BME280;57582;-34.876;138.628;2022-09-09T08:37:45;100880;;;14.56;72.62
70198;BME280;57582;-34.876;138.628;2022-09-09T08:40:45;100887;;;14.55;72.96
70198;BME280;57582;-34.876;138.628;2022-09-09T08:43:45;100879;;;14.55;73.00
70198;BME280;57582;-34.876;138.628;2022-09-09T08:49:56;100890;;;14.73;72.56
70198;BME280;57582;-34.876;138.628;2022-09-09T08:52:49;100894;;;14.61;72.75
70198;BME280;57582;-34.876;138.628;2022-09-09T08:58:47;100910;;;14.45;72.77
70198;BME280;57582;-34.876;138.628;2022-09-09T09:02:04;100912;;;14.41;72.79
70198;BME280;57582;-34.876;138.628;2022-09-09T09:07:55;100928;;;14.39;72.73
70198;BME280;57582;-34.876;138.628;2022-09-09T09:14:02;100931;;;14.27;72.33
70198;BME280;57582;-34.876;138.628;2022-09-09T09:19:45;100936;;;14.33;71.74
70198;BME280;57582;-34.876;138.628;2022-09-09T09:22:48;100940;;;14.38;71.69
70198;BME280;57582;-34.876;138.628;2022-09-09T09:25:45;100940;;;14.37;70.42
70198;BME280;57582;-34.876;138.628;2022-09-09T09:28:45;100963;;;14.21;70.77
70198;BME280;57582;-34.876;138.628;2022-09-09T09:31:47;100968;;;14.11;71.22
70198;BME280;57582;-34.876;138.628;2022-09-09T09:34:51;100976;;;14.08;71.89
70198;BME280;57582;-34.876;138.628;2022-09-09T09:37:45;100977;;;14.07;71.81
70198;BME280;57582;-34.876;138.628;2022-09-09T09:40:49;100983;;;13.94;72.38
70198;BME280;57582;-34.876;138.628;2022-09-09T09:43:52;100996;;;13.99;72.79
70198;BME280;57582;-34.876;138.628;2022-09-09T09:46:45;101008;;;13.87;74.39
70198;BME280;57582;-34.876;138.628;2022-09-09T09:52:53;101008;;;13.77;75.66
70198;BME280;57582;-34.876;138.628;2022-09-09T09:55:50;101006;;;13.51;76.34
70198;BME280;57582;-34.876;138.628;2022-09-09T10:01:45;101013;;;13.28;76.46
70198;BME280;57582;-34.876;138.628;2022-09-09T10:04:45;101011;;;13.30;76.31
70198;BME280;57582;-34.876;138.628;2022-09-09T10:07:45;101018;;;12.99;78.18
70198;BME280;57582;-34.876;138.628;2022-09-09T10:10:56;101030;;;12.87;79.17
70198;BME280;57582;-34.876;138.628;2022-09-09T10:19:50;101042;;;12.97;79.61
70198;BME280;57582;-34.876;138.628;2022-09-09T10:22:55;101047;;;13.00;79.72
70198;BME280;57582;-34.876;138.628;2022-09-09T10:43:51;101075;;;13.41;77.92
70198;BME280;57582;-34.876;138.628;2022-09-09T10:46:49;101078;;;13.54;77.70
70198;BME280;57582;-34.876;138.628;2022-09-09T10:53:02;101067;;;13.59;77.38
70198;BME280;57582;-34.876;138.628;2022-09-09T10:55:45;101076;;;13.60;76.93
70198;BME280;57582;-34.876;138.628;2022-09-09T11:01:47;101080;;;14.01;74.91
70198;BME280;57582;-34.876;138.628;2022-09-09T11:04:48;101091;;;14.15;74.40
70198;BME280;57582;-34.876;138.628;2022-09-09T11:16:46;101086;;;14.40;74.06
70198;BME280;57582;-34.876;138.628;2022-09-09T11:19:45;101087;;;14.47;73.32
70198;BME280;57582;-34.876;138.628;2022-09-09T11:22:49;101088;;;14.61;73.10
70198;BME280;57582;-34.876;138.628;2022-09-09T11:25:47;101090;;;14.78;72.65
70198;BME280;57582;-34.876;138.628;2022-09-09T11:29:05;101093;;;14.86;71.78
70198;BME280;57582;-34.876;138.628;2022-09-09T11:38:16;101088;;;15.06;71.12
70198;BME280;57582;-34.876;138.628;2022-09-09T11:40:45;101095;;;14.94;71.39
70198;BME280;57582;-34.876;138.628;2022-09-09T11:43:45;101094;;;15.05;71.72
70198;BME280;57582;-34.876;138.628;2022-09-09T11:46:46;101095;;;14.94;71.80
70198;BME280;57582;-34.876;138.628;2022-09-09T11:49:45;101099;;;15.00;72.10
70198;BME280;57582;-34.876;138.628;2022-09-09T11:52:45;101100;;;15.12;71.84
70198;BME280;57582;-34.876;138.628;2022-09-09T11:55:45;101107;;;15.27;71.16
70198;BME280;57582;-34.876;138.628;2022-09-09T11:59:02;101109;;;15.42;70.49
70198;BME280;57582;-34.876;138.628;2022-09-09T12:01:45;101113;;;15.54;69.84
70198;BME280;57582;-34.876;138.628;2022-09-09T12:07:54;101104;;;15.73;69.36
70198;BME280;57582;-34.876;138.628;2022-09-09T12:10:53;101111;;;15.83;69.17
70198;BME280;57582;-34.876;138.628;2022-09-09T12:13:52;101112;;;15.92;68.85
70198;BME280;57582;-34.876;138.628;2022-09-09T12:16:45;101117;;;15.88;68.79
70198;BME280;57582;-34.876;138.628;2022-09-09T12:19:45;101126;;;15.84;69.08
70198;BME280;57582;-34.876;138.628;2022-09-09T12:22:51;101127;;;15.82;69.16
70198;BME280;57582;-34.876;138.628;2022-09-09T12:31:51;101138;;;15.39;70.34
70198;BME280;57582;-34.876;138.628;2022-09-09T12:34:48;101140;;;15.19;71.20
70198;BME280;57582;-34.876;138.628;2022-09-09T12:37:53;101142;;;15.06;71.53
70198;BME280;57582;-34.876;138.628;2022-09-09T12:40:53;101134;;;14.84;72.18
70198;BME280;57582;-34.876;138.628;2022-09-09T12:43:45;101135;;;14.61;73.20
70198;BME280;57582;-34.876;138.628;2022-09-09T12:46:46;101148;;;14.48;73.87
70198;BME280;57582;-34.876;138.628;2022-09-09T12:49:45;101142;;;14.44;74.02
70198;BME280;57582;-34.876;138.628;2022-09-09T12:52:45;101147;;;14.42;74.21
70198;BME280;57582;-34.876;138.628;2022-09-09T12:55:54;101143;;;14.26;74.73
70198;BME280;57582;-34.876;138.628;2022-09-09T12:58:46;101144;;;14.20;75.15
70198;BME280;57582;-34.876;138.628;2022-09-09T13:01:54;101154;;;14.16;75.24
70198;BME280;57582;-34.876;138.628;2022-09-09T13:04:45;101146;;;14.18;75.17
70198;BME280;57582;-34.876;138.628;2022-09-09T13:07:45;101156;;;14.11;75.38
70198;BME280;57582;-34.876;138.628;2022-09-09T13:10:47;101149;;;14.10;75.51
70198;BME280;57582;-34.876;138.628;2022-09-09T13:13:50;101149;;;14.14;75.28
70198;BME280;57582;-34.876;138.628;2022-09-09T13:17:00;101144;;;14.13;75.16
70198;BME280;57582;-34.876;138.628;2022-09-09T13:19:45;101150;;;14.16;74.91
70198;BME280;57582;-34.876;138.628;2022-09-09T13:22:47;101165;;;14.16;74.96
70198;BME280;57582;-34.876;138.628;2022-09-09T13:25:55;101156;;;13.98;75.53
70198;BME280;57582;-34.876;138.628;2022-09-09T13:28:45;101153;;;14.02;75.48
70198;BME280;57582;-34.876;138.628;2022-09-09T13:31:45;101168;;;13.98;75.59
70198;BME280;57582;-34.876;138.628;2022-09-09T13:34:51;101163;;;14.00;75.71
70198;BME280;57582;-34.876;138.628;2022-09-09T13:37:45;101164;;;14.15;75.28
70198;BME280;57582;-34.876;138.628;2022-09-09T13:43:45;101150;;;14.16;75.12
70198;BME280;57582;-34.876;138.628;2022-09-09T13:46:46;101146;;;14.24;74.84
70198;BME280;57582;-34.876;138.628;2022-09-09T13:49:45;101154;;;14.29;74.65
70198;BME280;57582;-34.876;138.628;2022-09-09T13:52:45;101155;;;14.33;74.46
70198;BME280;57582;-34.876;138.628;2022-09-09T13:55:45;101166;;;14.46;74.11
70198;BME280;57582;-34.876;138.628;2022-09-09T13:58:46;101163;;;14.60;73.33
70198;BME280;57582;-34.876;138.628;2022-09-09T14:01:45;101172;;;14.72;73.04
70198;BME280;57582;-34.876;138.628;2022-09-09T14:04:45;101172;;;14.82;72.39
70198;BME280;57582;-34.876;138.628;2022-09-09T14:07:45;101181;;;14.94;71.99
70198;BME280;57582;-34.876;138.628;2022-09-09T14:10:46;101175;;;15.03;71.35
70198;BME280;57582;-34.876;138.628;2022-09-09T14:13:45;101177;;;15.11;70.10
70198;BME280;57582;-34.876;138.628;2022-09-09T14:16:45;101173;;;14.98;70.50
70198;BME280;57582;-34.876;138.628;2022-09-09T14:19:45;101180;;;14.90;70.00
70198;BME280;57582;-34.876;138.628;2022-09-09T14:22:46;101184;;;14.81;70.32
70198;BME280;57582;-34.876;138.628;2022-09-09T14:25:45;101180;;;14.78;70.54
70198;BME280;57582;-34.876;138.628;2022-09-09T14:28:45;101167;;;14.69;69.89
70198;BME280;57582;-34.876;138.628;2022-09-09T14:31:45;101180;;;14.73;69.95
70198;BME280;57582;-34.876;138.628;2022-09-09T14:34:46;101189;;;14.75;69.72
70198;BME280;57582;-34.876;138.628;2022-09-09T14:37:45;101186;;;14.77;69.22
70198;BME280;57582;-34.876;138.628;2022-09-09T14:40:45;101186;;;14.81;69.02
70198;BME280;57582;-34.876;138.628;2022-09-09T14:46:46;101193;;;15.17;67.57
70198;BME280;57582;-34.876;138.628;2022-09-09T14:49:45;101189;;;15.31;66.73
70198;BME280;57582;-34.876;138.628;2022-09-09T14:52:45;101181;;;15.49;65.86
70198;BME280;57582;-34.876;138.628;2022-09-09T14:55:45;101187;;;15.62;65.25
70198;BME280;57582;-34.876;138.628;2022-09-09T14:58:45;101189;;;15.76;64.57
70198;BME280;57582;-34.876;138.628;2022-09-09T15:01:45;101185;;;15.74;63.49
70198;BME280;57582;-34.876;138.628;2022-09-09T15:04:46;101191;;;15.76;64.10
70198;BME280;57582;-34.876;138.628;2022-09-09T15:07:45;101188;;;15.82;63.90
70198;BME280;57582;-34.876;138.628;2022-09-09T15:10:46;101182;;;15.90;63.39
70198;BME280;57582;-34.876;138.628;2022-09-09T15:13:45;101184;;;15.94;63.20
70198;BME280;57582;-34.876;138.628;2022-09-09T15:16:45;101188;;;15.95;62.69
70198;BME280;57582;-34.876;138.628;2022-09-09T15:19:45;101196;;;15.81;62.40
70198;BME280;57582;-34.876;138.628;2022-09-09T15:22:46;101191;;;15.66;63.02
70198;BME280;57582;-34.876;138.628;2022-09-09T15:25:53;101194;;;15.66;62.62
70198;BME280;57582;-34.876;138.628;2022-09-09T15:28:45;101194;;;15.66;61.94
70198;BME280;57582;-34.876;138.628;2022-09-09T15:31:45;101203;;;15.64;62.17
70198;BME280;57582;-34.876;138.628;2022-09-09T15:34:46;101205;;;15.63;61.97
70198;BME280;57582;-34.876;138.628;2022-09-09T15:37:45;101214;;;15.48;61.94
70198;BME280;57582;-34.876;138.628;2022-09-09T15:40:52;101207;;;15.19;63.45
70198;BME280;57582;-34.876;138.628;2022-09-09T15:43:46;101208;;;15.16;63.89
70198;BME280;57582;-34.876;138.628;2022-09-09T15:46:48;101209;;;15.20;63.58
70198;BME280;57582;-34.876;138.628;2022-09-09T15:49:45;101205;;;15.19;63.73
70198;BME280;57582;-34.876;138.628;2022-09-09T15:52:45;101204;;;15.25;63.39
70198;BME280;57582;-34.876;138.628;2022-09-09T15:55:45;101205;;;15.31;62.89
70198;BME280;57582;-34.876;138.628;2022-09-09T15:58:46;101205;;;15.35;63.19
70198;BME280;57582;-34.876;138.628;2022-09-09T16:01:45;101205;;;15.37;63.04
70198;BME280;57582;-34.876;138.628;2022-09-09T16:04:45;101202;;;15.32;63.16
70198;BME280;57582;-34.876;138.628;2022-09-09T16:07:45;101201;;;15.33;63.11
70198;BME280;57582;-34.876;138.628;2022-09-09T16:10:46;101200;;;15.37;63.14
70198;BME280;57582;-34.876;138.628;2022-09-09T16:13:46;101196;;;15.45;62.81
70198;BME280;57582;-34.876;138.628;2022-09-09T16:16:46;101195;;;15.41;62.54
70198;BME280;57582;-34.876;138.628;2022-09-09T16:19:45;101170;;;15.26;63.39
70198;BME280;57582;-34.876;138.628;2022-09-09T16:22:46;101190;;;15.45;63.42
70198;BME280;57582;-34.876;138.628;2022-09-09T16:26:00;101192;;;15.59;62.44
70198;BME280;57582;-34.876;138.628;2022-09-09T16:28:45;101189;;;15.78;61.84
70198;BME280;57582;-34.876;138.628;2022-09-09T16:31:45;101185;;;16.03;60.71
70198;BME280;57582;-34.876;138.628;2022-09-09T16:34:46;101183;;;16.02;60.02
70198;BME280;57582;-34.876;138.628;2022-09-09T16:37:45;101186;;;16.10;60.85
70198;BME280;57582;-34.876;138.628;2022-09-09T16:40:45;101174;;;16.23;59.28
70198;BME280;57582;-34.876;138.628;2022-09-09T16:43:45;101174;;;16.31;59.76
70198;BME280;57582;-34.876;138.628;2022-09-09T16:46:47;101174;;;16.47;59.47
70198;BME280;57582;-34.876;138.628;2022-09-09T16:49:45;101177;;;16.52;59.23
70198;BME280;57582;-34.876;138.628;2022-09-09T16:52:45;101175;;;16.52;59.44
70198;BME280;57582;-34.876;138.628;2022-09-09T16:55:45;101172;;;16.44;59.57
70198;BME280;57582;-34.876;138.628;2022-09-09T16:58:51;101171;;;16.24;59.68
70198;BME280;57582;-34.876;138.628;2022-09-09T17:01:46;101171;;;16.10;60.20
70198;BME280;57582;-34.876;138.628;2022-09-09T17:04:45;101167;;;16.02;60.16
70198;BME280;57582;-34.876;138.628;2022-09-09T17:07:46;101173;;;16.03;59.86
70198;BME280;57582;-34.876;138.628;2022-09-09T17:10:47;101168;;;15.77;60.64
70198;BME280;57582;-34.876;138.628;2022-09-09T17:13:46;101165;;;15.52;61.27
70198;BME280;57582;-34.876;138.628;2022-09-09T17:16:45;101164;;;15.41;61.77
70198;BME280;57582;-34.876;138.628;2022-09-09T17:19:45;101163;;;15.45;62.05
70198;BME280;57582;-34.876;138.628;2022-09-09T17:22:46;101159;;;15.62;61.66
70198;BME280;57582;-34.876;138.628;2022-09-09T17:25:55;101162;;;15.77;60.73
70198;BME280;57582;-34.876;138.628;2022-09-09T17:28:45;101155;;;15.71;60.52
70198;BME280;57582;-34.876;138.628;2022-09-09T17:31:45;101156;;;15.47;61.46
70198;BME280;57582;-34.876;138.628;2022-09-09T17:34:46;101151;;;15.18;62.35
70198;BME280;57582;-34.876;138.628;2022-09-09T17:37:45;101152;;;15.11;62.73
70198;BME280;57582;-34.876;138.628;2022-09-09T17:40:45;101143;;;15.16;63.01